sensor_id;sensor_type;location;lat;lon;timestamp;P1;durP1;ratioP1;P2;durP2;ratioP2
26989;SDS011;14537;47.788;11.858;2023-03-07T00:01:50;13.52;;;4.90;;
26989;SDS011;14537;47.788;11.858;2023-03-07T00:04:16;14.05;;;4.80;;
26989;SDS011;14537;47.788;11.858;2023-03-07T00:06:42;10.52;;;4.57;;
26989;SDS011;14537;47.788;11.858;2023-03-07T00:09:08;11.65;;;4.55;;
26989;SDS011;14537;47.788;11.858;2023-03-07T00:11:34;9.73;;;4.15;;
26989;SDS011;14537;47.788;11.858;2023-03-07T00:13:59;10.18;;;4.53;;
26989;SDS011;14537;47.788;11.858;2023-03-07T00:16:25;12.15;;;4.72;;
26989;SDS011;14537;47.788;11.858;2023-03-07T00:18:51;8.98;;;4.50;;
26989;SDS011;14537;47.788;11.858;2023-03-07T00:21:18;13.25;;;4.68;;
26989;SDS011;14537;47.788;11.858;2023-03-07T00:23:45;14.57;;;5.63;;
26989;SDS011;14537;47.788;11.858;2023-03-07T00:26:18;9.68;;;4.15;;
26989;SDS011;14537;47.788;11.858;2023-03-07T00:28:45;10.30;;;4.18;;
26989;SDS011;14537;47.788;11.858;2023-03-07T00:31:12;13.15;;;5.28;;
26989;SDS011;14537;47.788;11.858;2023-03-07T00:33:38;11.93;;;4.47;;
26989;SDS011;14537;47.788;11.858;2023-03-07T00:36:05;16.77;;;4.80;;
26989;SDS011;14537;47.788;11.858;2023-03-07T00:41:01;10.35;;;4.65;;
26989;SDS011;14537;47.788;11.858;2023-03-07T00:43:29;14.30;;;4.37;;
26989;SDS011;14537;47.788;11.858;2023-03-07T00:45:55;10.20;;;4.40;;
26989;SDS011;14537;47.788;11.858;2023-03-07T00:48:21;11.98;;;5.38;;
26989;SDS011;14537;47.788;11.858;2023-03-07T00:50:47;11.95;;;4.82;;
26989;SDS011;14537;47.788;11.858;2023-03-07T00:53:13;9.30;;;4.30;;
26989;SDS011;14537;47.788;11.858;2023-03-07T00:55:39;11.43;;;4.75;;
26989;SDS011;14537;47.788;11.858;2023-03-07T00:58:05;12.90;;;4.07;;
26989;SDS011;14537;47.788;11.858;2023-03-07T01:00:31;10.70;;;4.10;;
26989;SDS011;14537;47.788;11.858;2023-03-07T01:02:56;10.20;;;4.13;;
26989;SDS011;14537;47.788;11.858;2023-03-07T01:05:23;9.65;;;4.63;;
26989;SDS011;14537;47.788;11.858;2023-03-07T01:07:48;10.18;;;4.20;;
26989;SDS011;14537;47.788;11.858;2023-03-07T01:10:14;11.07;;;4.82;;
26989;SDS011;14537;47.788;11.858;2023-03-07T01:12:40;11.18;;;4.43;;
26989;SDS011;14537;47.788;11.858;2023-03-07T01:15:07;12.38;;;4.45;;
26989;SDS011;14537;47.788;11.858;2023-03-07T01:17:34;9.20;;;3.53;;
26989;SDS011;14537;47.788;11.858;2023-03-07T01:19:59;9.23;;;4.28;;
26989;SDS011;14537;47.788;11.858;2023-03-07T01:22:25;11.23;;;4.65;;
26989;SDS011;14537;47.788;11.858;2023-03-07T01:24:51;11.07;;;4.43;;
26989;SDS011;14537;47.788;11.858;2023-03-07T01:27:16;11.32;;;4.47;;
26989;SDS011;14537;47.788;11.858;2023-03-07T01:29:42;8.00;;;3.42;;
26989;SDS011;14537;47.788;11.858;2023-03-07T01:32:07;10.25;;;3.72;;
26989;SDS011;14537;47.788;11.858;2023-03-07T01:34:33;12.57;;;5.18;;
26989;SDS011;14537;47.788;11.858;2023-03-07T01:36:58;14.52;;;5.50;;
26989;SDS011;14537;47.788;11.858;2023-03-07T01:39:24;14.80;;;5.47;;
26989;SDS011;14537;47.788;11.858;2023-03-07T01:41:49;11.05;;;4.65;;
26989;SDS011;14537;47.788;11.858;2023-03-07T01:44:16;12.75;;;4.97;;
26989;SDS011;14537;47.788;11.858;2023-03-07T01:46:49;14.02;;;5.13;;
26989;SDS011;14537;47.788;11.858;2023-03-07T01:52:05;12.32;;;5.22;;
26989;SDS011;14537;47.788;11.858;2023-03-07T01:54:32;11.70;;;5.32;;
26989;SDS011;14537;47.788;11.858;2023-03-07T01:57:01;16.88;;;4.47;;
26989;SDS011;14537;47.788;11.858;2023-03-07T01:59:28;13.43;;;4.97;;
26989;SDS011;14537;47.788;11.858;2023-03-07T02:01:57;15.50;;;4.97;;
26989;SDS011;14537;47.788;11.858;2023-03-07T02:04:28;14.95;;;5.47;;
26989;SDS011;14537;47.788;11.858;2023-03-07T02:07:26;11.90;;;5.07;;
26989;SDS011;14537;47.788;11.858;2023-03-07T02:09:57;14.10;;;5.75;;
26989;SDS011;14537;47.788;11.858;2023-03-07T02:12:23;14.63;;;5.55;;
26989;SDS011;14537;47.788;11.858;2023-03-07T02:14:49;15.48;;;5.32;;
26989;SDS011;14537;47.788;11.858;2023-03-07T02:17:15;12.40;;;5.18;;
26989;SDS011;14537;47.788;11.858;2023-03-07T02:22:23;15.98;;;4.60;;
26989;SDS011;14537;47.788;11.858;2023-03-07T02:27:52;15.15;;;5.18;;
26989;SDS011;14537;47.788;11.858;2023-03-07T02:30:21;12.88;;;5.03;;
26989;SDS011;14537;47.788;11.858;2023-03-07T02:32:46;20.73;;;6.55;;
26989;SDS011;14537;47.788;11.858;2023-03-07T02:35:16;15.00;;;5.72;;
26989;SDS011;14537;47.788;11.858;2023-03-07T02:37:48;11.10;;;4.13;;
26989;SDS011;14537;47.788;11.858;2023-03-07T02:40:19;13.48;;;5.40;;
26989;SDS011;14537;47.788;11.858;2023-03-07T02:42:47;16.35;;;5.13;;
26989;SDS011;14537;47.788;11.858;2023-03-07T02:45:17;13.80;;;5.03;;
26989;SDS011;14537;47.788;11.858;2023-03-07T02:47:44;13.05;;;5.20;;
26989;SDS011;14537;47.788;11.858;2023-03-07T02:50:10;14.27;;;5.40;;
26989;SDS011;14537;47.788;11.858;2023-03-07T02:52:37;10.98;;;4.55;;
26989;SDS011;14537;47.788;11.858;2023-03-07T02:55:03;15.35;;;5.30;;
26989;SDS011;14537;47.788;11.858;2023-03-07T02:57:29;10.02;;;4.35;;
26989;SDS011;14537;47.788;11.858;2023-03-07T02:59:55;14.68;;;5.18;;
26989;SDS011;14537;47.788;11.858;2023-03-07T03:02:21;12.77;;;4.53;;
26989;SDS011;14537;47.788;11.858;2023-03-07T03:04:47;12.05;;;4.70;;
26989;SDS011;14537;47.788;11.858;2023-03-07T03:07:12;10.65;;;4.72;;
26989;SDS011;14537;47.788;11.858;2023-03-07T03:09:38;13.13;;;4.45;;
26989;SDS011;14537;47.788;11.858;2023-03-07T03:12:03;11.48;;;4.15;;
26989;SDS011;14537;47.788;11.858;2023-03-07T03:14:29;10.85;;;4.70;;
26989;SDS011;14537;47.788;11.858;2023-03-07T03:16:56;14.95;;;5.05;;
26989;SDS011;14537;47.788;11.858;2023-03-07T03:19:21;13.48;;;5.03;;
26989;SDS011;14537;47.788;11.858;2023-03-07T03:21:48;11.63;;;4.30;;
26989;SDS011;14537;47.788;11.858;2023-03-07T03:24:14;12.38;;;5.30;;
26989;SDS011;14537;47.788;11.858;2023-03-07T03:26:39;12.07;;;4.22;;
26989;SDS011;14537;47.788;11.858;2023-03-07T03:29:05;12.55;;;4.70;;
26989;SDS011;14537;47.788;11.858;2023-03-07T03:31:31;12.98;;;4.75;;
26989;SDS011;14537;47.788;11.858;2023-03-07T03:33:57;13.38;;;5.25;;
26989;SDS011;14537;47.788;11.858;2023-03-07T03:36:23;11.93;;;4.32;;
26989;SDS011;14537;47.788;11.858;2023-03-07T03:38:55;9.77;;;4.32;;
26989;SDS011;14537;47.788;11.858;2023-03-07T03:41:22;13.30;;;4.55;;
26989;SDS011;14537;47.788;11.858;2023-03-07T03:43:48;12.93;;;4.57;;
26989;SDS011;14537;47.788;11.858;2023-03-07T03:46:14;15.43;;;5.75;;
26989;SDS011;14537;47.788;11.858;2023-03-07T03:48:41;11.93;;;5.38;;
26989;SDS011;14537;47.788;11.858;2023-03-07T03:51:08;11.95;;;5.07;;
26989;SDS011;14537;47.788;11.858;2023-03-07T03:53:37;13.40;;;5.32;;
26989;SDS011;14537;47.788;11.858;2023-03-07T03:58:31;12.05;;;4.85;;
26989;SDS011;14537;47.788;11.858;2023-03-07T04:00:59;12.27;;;5.13;;
26989;SDS011;14537;47.788;11.858;2023-03-07T04:03:32;16.02;;;5.20;;
26989;SDS011;14537;47.788;11.858;2023-03-07T04:06:03;16.10;;;5.97;;
26989;SDS011;14537;47.788;11.858;2023-03-07T04:08:31;18.75;;;6.05;;
26989;SDS011;14537;47.788;11.858;2023-03-07T04:10:57;15.65;;;6.07;;
26989;SDS011;14537;47.788;11.858;2023-03-07T04:13:23;17.75;;;5.47;;
26989;SDS011;14537;47.788;11.858;2023-03-07T04:15:49;19.98;;;5.78;;
26989;SDS011;14537;47.788;11.858;2023-03-07T04:18:16;21.85;;;5.30;;
26989;SDS011;14537;47.788;11.858;2023-03-07T04:20:42;16.95;;;5.50;;
26989;SDS011;14537;47.788;11.858;2023-03-07T04:23:09;16.63;;;5.47;;
26989;SDS011;14537;47.788;11.858;2023-03-07T04:25:34;16.73;;;5.80;;
26989;SDS011;14537;47.788;11.858;2023-03-07T04:28:00;18.38;;;6.97;;
26989;SDS011;14537;47.788;11.858;2023-03-07T04:30:26;19.00;;;6.40;;
26989;SDS011;14537;47.788;11.858;2023-03-07T04:32:52;15.00;;;5.85;;
26989;SDS011;14537;47.788;11.858;2023-03-07T04:35:18;20.80;;;5.13;;
26989;SDS011;14537;47.788;11.858;2023-03-07T04:37:43;21.85;;;6.28;;
26989;SDS011;14537;47.788;11.858;2023-03-07T04:40:09;18.83;;;6.82;;
26989;SDS011;14537;47.788;11.858;2023-03-07T04:42:35;17.50;;;6.30;;
26989;SDS011;14537;47.788;11.858;2023-03-07T04:45:01;16.70;;;6.63;;
26989;SDS011;14537;47.788;11.858;2023-03-07T04:47:27;14.40;;;5.47;;
26989;SDS011;14537;47.788;11.858;2023-03-07T04:49:53;14.77;;;5.25;;
26989;SDS011;14537;47.788;11.858;2023-03-07T04:52:19;15.73;;;6.53;;
26989;SDS011;14537;47.788;11.858;2023-03-07T04:54:44;14.82;;;5.97;;
26989;SDS011;14537;47.788;11.858;2023-03-07T04:57:10;19.33;;;6.30;;
26989;SDS011;14537;47.788;11.858;2023-03-07T04:59:36;20.05;;;6.32;;
26989;SDS011;14537;47.788;11.858;2023-03-07T05:02:06;14.57;;;6.07;;
26989;SDS011;14537;47.788;11.858;2023-03-07T05:04:35;16.15;;;6.10;;
26989;SDS011;14537;47.788;11.858;2023-03-07T05:07:01;20.35;;;6.10;;
26989;SDS011;14537;47.788;11.858;2023-03-07T05:09:27;15.88;;;6.13;;
26989;SDS011;14537;47.788;11.858;2023-03-07T05:11:53;15.30;;;6.30;;
26989;SDS011;14537;47.788;11.858;2023-03-07T05:14:18;16.08;;;6.38;;
26989;SDS011;14537;47.788;11.858;2023-03-07T05:16:44;14.90;;;6.20;;
26989;SDS011;14537;47.788;11.858;2023-03-07T05:19:09;15.57;;;6.30;;
26989;SDS011;14537;47.788;11.858;2023-03-07T05:21:37;19.95;;;6.25;;
26989;SDS011;14537;47.788;11.858;2023-03-07T05:24:05;20.80;;;6.38;;
26989;SDS011;14537;47.788;11.858;2023-03-07T05:26:31;17.45;;;5.97;;
26989;SDS011;14537;47.788;11.858;2023-03-07T05:28:57;19.83;;;6.93;;
26989;SDS011;14537;47.788;11.858;2023-03-07T05:31:23;15.13;;;5.57;;
26989;SDS011;14537;47.788;11.858;2023-03-07T05:33:48;20.92;;;7.38;;
26989;SDS011;14537;47.788;11.858;2023-03-07T05:36:14;18.52;;;6.68;;
26989;SDS011;14537;47.788;11.858;2023-03-07T05:38:40;18.98;;;6.45;;
26989;SDS011;14537;47.788;11.858;2023-03-07T05:41:06;23.73;;;6.22;;
26989;SDS011;14537;47.788;11.858;2023-03-07T05:43:32;17.60;;;6.93;;
26989;SDS011;14537;47.788;11.858;2023-03-07T05:45:57;15.95;;;6.53;;
26989;SDS011;14537;47.788;11.858;2023-03-07T05:48:23;13.57;;;6.00;;
26989;SDS011;14537;47.788;11.858;2023-03-07T05:50:48;23.08;;;7.20;;
26989;SDS011;14537;47.788;11.858;2023-03-07T05:53:14;16.95;;;5.88;;
26989;SDS011;14537;47.788;11.858;2023-03-07T05:55:39;16.60;;;6.07;;
26989;SDS011;14537;47.788;11.858;2023-03-07T05:58:05;16.63;;;5.60;;
26989;SDS011;14537;47.788;11.858;2023-03-07T06:00:31;15.77;;;5.80;;
26989;SDS011;14537;47.788;11.858;2023-03-07T06:02:56;14.23;;;5.43;;
26989;SDS011;14537;47.788;11.858;2023-03-07T06:05:22;18.67;;;6.68;;
26989;SDS011;14537;47.788;11.858;2023-03-07T06:07:48;16.85;;;6.78;;
26989;SDS011;14537;47.788;11.858;2023-03-07T06:10:14;11.90;;;5.43;;
26989;SDS011;14537;47.788;11.858;2023-03-07T06:12:40;19.85;;;5.85;;
26989;SDS011;14537;47.788;11.858;2023-03-07T06:15:06;14.43;;;5.45;;
26989;SDS011;14537;47.788;11.858;2023-03-07T06:17:32;13.82;;;4.97;;
26989;SDS011;14537;47.788;11.858;2023-03-07T06:19:58;14.80;;;5.45;;
26989;SDS011;14537;47.788;11.858;2023-03-07T06:22:24;17.70;;;5.50;;
26989;SDS011;14537;47.788;11.858;2023-03-07T06:24:49;17.48;;;6.25;;
26989;SDS011;14537;47.788;11.858;2023-03-07T06:27:15;14.55;;;5.28;;
26989;SDS011;14537;47.788;11.858;2023-03-07T06:29:41;17.50;;;6.22;;
26989;SDS011;14537;47.788;11.858;2023-03-07T06:32:06;17.55;;;6.22;;
26989;SDS011;14537;47.788;11.858;2023-03-07T06:34:32;19.08;;;5.93;;
26989;SDS011;14537;47.788;11.858;2023-03-07T06:36:58;12.45;;;5.03;;
26989;SDS011;14537;47.788;11.858;2023-03-07T06:39:24;18.00;;;6.25;;
26989;SDS011;14537;47.788;11.858;2023-03-07T06:41:51;13.25;;;6.03;;
26989;SDS011;14537;47.788;11.858;2023-03-07T06:44:16;14.35;;;5.85;;
26989;SDS011;14537;47.788;11.858;2023-03-07T06:46:43;15.02;;;6.30;;
26989;SDS011;14537;47.788;11.858;2023-03-07T06:49:09;19.25;;;7.13;;
26989;SDS011;14537;47.788;11.858;2023-03-07T06:51:35;16.23;;;5.90;;
26989;SDS011;14537;47.788;11.858;2023-03-07T06:54:01;18.05;;;5.57;;
26989;SDS011;14537;47.788;11.858;2023-03-07T06:56:26;16.95;;;6.65;;
26989;SDS011;14537;47.788;11.858;2023-03-07T06:58:54;19.45;;;5.43;;
26989;SDS011;14537;47.788;11.858;2023-03-07T07:01:20;15.75;;;6.13;;
26989;SDS011;14537;47.788;11.858;2023-03-07T07:03:49;16.27;;;6.57;;
26989;SDS011;14537;47.788;11.858;2023-03-07T07:06:15;13.02;;;4.95;;
26989;SDS011;14537;47.788;11.858;2023-03-07T07:08:41;15.52;;;6.07;;
26989;SDS011;14537;47.788;11.858;2023-03-07T07:11:06;17.55;;;5.90;;
26989;SDS011;14537;47.788;11.858;2023-03-07T07:13:32;19.75;;;6.78;;
26989;SDS011;14537;47.788;11.858;2023-03-07T07:16:02;17.13;;;6.78;;
26989;SDS011;14537;47.788;11.858;2023-03-07T07:18:29;16.77;;;5.65;;
26989;SDS011;14537;47.788;11.858;2023-03-07T07:20:55;20.15;;;6.75;;
26989;SDS011;14537;47.788;11.858;2023-03-07T07:23:21;20.30;;;6.38;;
26989;SDS011;14537;47.788;11.858;2023-03-07T07:25:47;15.63;;;5.32;;
26989;SDS011;14537;47.788;11.858;2023-03-07T07:28:12;17.23;;;6.43;;
26989;SDS011;14537;47.788;11.858;2023-03-07T07:30:38;18.98;;;6.55;;
26989;SDS011;14537;47.788;11.858;2023-03-07T07:33:03;18.70;;;7.07;;
26989;SDS011;14537;47.788;11.858;2023-03-07T07:35:29;16.25;;;5.68;;
26989;SDS011;14537;47.788;11.858;2023-03-07T07:37:55;18.73;;;6.80;;
26989;SDS011;14537;47.788;11.858;2023-03-07T07:40:20;19.23;;;6.57;;
26989;SDS011;14537;47.788;11.858;2023-03-07T07:42:49;15.73;;;6.07;;
26989;SDS011;14537;47.788;11.858;2023-03-07T07:45:21;17.98;;;6.32;;
26989;SDS011;14537;47.788;11.858;2023-03-07T07:47:48;18.15;;;7.07;;
26989;SDS011;14537;47.788;11.858;2023-03-07T07:50:15;14.90;;;6.38;;
26989;SDS011;14537;47.788;11.858;2023-03-07T07:52:41;19.33;;;6.20;;
26989;SDS011;14537;47.788;11.858;2023-03-07T07:55:07;21.73;;;7.47;;
26989;SDS011;14537;47.788;11.858;2023-03-07T07:57:34;18.98;;;7.30;;
26989;SDS011;14537;47.788;11.858;2023-03-07T08:00:01;19.42;;;6.45;;
26989;SDS011;14537;47.788;11.858;2023-03-07T08:02:28;19.92;;;7.10;;
26989;SDS011;14537;47.788;11.858;2023-03-07T08:04:54;17.58;;;6.22;;
26989;SDS011;14537;47.788;11.858;2023-03-07T08:07:20;20.52;;;7.80;;
26989;SDS011;14537;47.788;11.858;2023-03-07T08:09:46;19.77;;;6.88;;
26989;SDS011;14537;47.788;11.858;2023-03-07T08:12:12;22.13;;;7.18;;
26989;SDS011;14537;47.788;11.858;2023-03-07T08:14:38;15.30;;;5.80;;
26989;SDS011;14537;47.788;11.858;2023-03-07T08:17:04;23.80;;;6.65;;
26989;SDS011;14537;47.788;11.858;2023-03-07T08:19:30;19.52;;;7.03;;
26989;SDS011;14537;47.788;11.858;2023-03-07T08:21:56;15.18;;;6.00;;
26989;SDS011;14537;47.788;11.858;2023-03-07T08:24:23;22.60;;;7.32;;
26989;SDS011;14537;47.788;11.858;2023-03-07T08:26:49;17.05;;;5.57;;
26989;SDS011;14537;47.788;11.858;2023-03-07T08:29:15;18.48;;;6.22;;
26989;SDS011;14537;47.788;11.858;2023-03-07T08:31:43;18.00;;;6.30;;
26989;SDS011;14537;47.788;11.858;2023-03-07T08:34:10;17.20;;;6.28;;
26989;SDS011;14537;47.788;11.858;2023-03-07T08:36:38;17.20;;;6.40;;
26989;SDS011;14537;47.788;11.858;2023-03-07T08:39:04;18.15;;;7.55;;
26989;SDS011;14537;47.788;11.858;2023-03-07T08:41:30;20.73;;;6.80;;
26989;SDS011;14537;47.788;11.858;2023-03-07T08:43:55;17.50;;;6.30;;
26989;SDS011;14537;47.788;11.858;2023-03-07T08:46:21;18.92;;;6.35;;
26989;SDS011;14537;47.788;11.858;2023-03-07T08:48:47;20.10;;;6.55;;
26989;SDS011;14537;47.788;11.858;2023-03-07T08:51:14;22.92;;;7.35;;
26989;SDS011;14537;47.788;11.858;2023-03-07T08:53:41;14.15;;;5.32;;
26989;SDS011;14537;47.788;11.858;2023-03-07T08:56:09;14.20;;;5.80;;
26989;SDS011;14537;47.788;11.858;2023-03-07T08:58:36;15.75;;;5.60;;
26989;SDS011;14537;47.788;11.858;2023-03-07T09:01:03;18.60;;;6.30;;
26989;SDS011;14537;47.788;11.858;2023-03-07T09:03:29;16.00;;;6.25;;
26989;SDS011;14537;47.788;11.858;2023-03-07T09:05:55;15.77;;;5.47;;
26989;SDS011;14537;47.788;11.858;2023-03-07T09:08:21;18.90;;;5.97;;
26989;SDS011;14537;47.788;11.858;2023-03-07T09:10:46;14.77;;;6.07;;
26989;SDS011;14537;47.788;11.858;2023-03-07T09:13:12;14.10;;;5.38;;
26989;SDS011;14537;47.788;11.858;2023-03-07T09:15:38;17.08;;;6.07;;
26989;SDS011;14537;47.788;11.858;2023-03-07T09:18:05;18.33;;;6.05;;
26989;SDS011;14537;47.788;11.858;2023-03-07T09:20:31;16.40;;;5.75;;
26989;SDS011;14537;47.788;11.858;2023-03-07T09:22:57;16.98;;;6.03;;
26989;SDS011;14537;47.788;11.858;2023-03-07T09:25:22;17.10;;;5.75;;
26989;SDS011;14537;47.788;11.858;2023-03-07T09:27:48;20.10;;;6.38;;
26989;SDS011;14537;47.788;11.858;2023-03-07T09:30:14;14.95;;;6.15;;
26989;SDS011;14537;47.788;11.858;2023-03-07T09:32:40;15.55;;;6.45;;
26989;SDS011;14537;47.788;11.858;2023-03-07T09:35:06;17.55;;;5.85;;
26989;SDS011;14537;47.788;11.858;2023-03-07T09:37:34;12.85;;;5.25;;
26989;SDS011;14537;47.788;11.858;2023-03-07T09:40:00;15.48;;;6.43;;
26989;SDS011;14537;47.788;11.858;2023-03-07T09:42:36;16.50;;;6.57;;
26989;SDS011;14537;47.788;11.858;2023-03-07T09:53:36;14.60;;;6.18;;
26989;SDS011;14537;47.788;11.858;2023-03-07T09:56:29;19.38;;;7.25;;
26989;SDS011;14537;47.788;11.858;2023-03-07T09:59:20;21.60;;;6.95;;
26989;SDS011;14537;47.788;11.858;2023-03-07T10:02:14;20.50;;;6.03;;
26989;SDS011;14537;47.788;11.858;2023-03-07T10:07:53;21.45;;;6.80;;
26989;SDS011;14537;47.788;11.858;2023-03-07T10:10:21;20.00;;;7.15;;
26989;SDS011;14537;47.788;11.858;2023-03-07T10:12:59;17.20;;;6.40;;
26989;SDS011;14537;47.788;11.858;2023-03-07T10:15:35;18.77;;;6.57;;
26989;SDS011;14537;47.788;11.858;2023-03-07T10:24:00;19.95;;;6.82;;
26989;SDS011;14537;47.788;11.858;2023-03-07T10:29:14;14.15;;;6.15;;
26989;SDS011;14537;47.788;11.858;2023-03-07T10:31:46;20.63;;;6.72;;
26989;SDS011;14537;47.788;11.858;2023-03-07T10:34:28;16.45;;;7.10;;
26989;SDS011;14537;47.788;11.858;2023-03-07T10:36:56;20.88;;;7.20;;
26989;SDS011;14537;47.788;11.858;2023-03-07T10:42:29;17.13;;;6.57;;
26989;SDS011;14537;47.788;11.858;2023-03-07T10:45:00;23.60;;;7.63;;
26989;SDS011;14537;47.788;11.858;2023-03-07T10:47:26;15.85;;;6.50;;
26989;SDS011;14537;47.788;11.858;2023-03-07T10:49:59;23.70;;;7.35;;
26989;SDS011;14537;47.788;11.858;2023-03-07T10:52:51;23.13;;;7.20;;
26989;SDS011;14537;47.788;11.858;2023-03-07T10:55:28;17.58;;;6.82;;
26989;SDS011;14537;47.788;11.858;2023-03-07T10:58:07;19.08;;;7.13;;
26989;SDS011;14537;47.788;11.858;2023-03-07T11:00:37;18.55;;;6.65;;
26989;SDS011;14537;47.788;11.858;2023-03-07T11:03:02;23.67;;;7.50;;
26989;SDS011;14537;47.788;11.858;2023-03-07T11:05:32;17.88;;;6.80;;
26989;SDS011;14537;47.788;11.858;2023-03-07T11:08:00;18.70;;;6.25;;
26989;SDS011;14537;47.788;11.858;2023-03-07T11:10:45;23.65;;;7.28;;
26989;SDS011;14537;47.788;11.858;2023-03-07T11:13:14;19.85;;;6.80;;
26989;SDS011;14537;47.788;11.858;2023-03-07T11:15:42;14.02;;;6.07;;
26989;SDS011;14537;47.788;11.858;2023-03-07T11:18:25;18.92;;;7.22;;
26989;SDS011;14537;47.788;11.858;2023-03-07T11:20:51;17.58;;;6.53;;
26989;SDS011;14537;47.788;11.858;2023-03-07T11:25:47;16.08;;;6.60;;
26989;SDS011;14537;47.788;11.858;2023-03-07T11:30:52;19.73;;;7.43;;
26989;SDS011;14537;47.788;11.858;2023-03-07T11:33:52;22.27;;;6.68;;
26989;SDS011;14537;47.788;11.858;2023-03-07T11:36:36;22.38;;;7.68;;
26989;SDS011;14537;47.788;11.858;2023-03-07T11:41:46;16.15;;;7.22;;
26989;SDS011;14537;47.788;11.858;2023-03-07T11:55:52;16.92;;;6.40;;
26989;SDS011;14537;47.788;11.858;2023-03-07T12:15:24;23.15;;;7.75;;
26989;SDS011;14537;47.788;11.858;2023-03-07T12:26:05;18.17;;;6.95;;
26989;SDS011;14537;47.788;11.858;2023-03-07T12:28:45;19.88;;;7.32;;
26989;SDS011;14537;47.788;11.858;2023-03-07T12:31:22;23.85;;;8.43;;
26989;SDS011;14537;47.788;11.858;2023-03-07T12:34:00;15.77;;;6.65;;
26989;SDS011;14537;47.788;11.858;2023-03-07T12:39:09;20.73;;;7.50;;
26989;SDS011;14537;47.788;11.858;2023-03-07T12:44:32;18.42;;;7.70;;
26989;SDS011;14537;47.788;11.858;2023-03-07T12:47:09;19.35;;;6.38;;
26989;SDS011;14537;47.788;11.858;2023-03-07T12:52:15;16.38;;;6.93;;
26989;SDS011;14537;47.788;11.858;2023-03-07T12:54:55;20.10;;;7.10;;
26989;SDS011;14537;47.788;11.858;2023-03-07T12:57:28;20.40;;;6.72;;
26989;SDS011;14537;47.788;11.858;2023-03-07T13:00:00;18.10;;;7.43;;
26989;SDS011;14537;47.788;11.858;2023-03-07T13:02:31;18.70;;;6.35;;
26989;SDS011;14537;47.788;11.858;2023-03-07T13:05:03;19.98;;;7.10;;
26989;SDS011;14537;47.788;11.858;2023-03-07T13:07:29;22.40;;;7.65;;
26989;SDS011;14537;47.788;11.858;2023-03-07T13:09:58;18.42;;;7.68;;
26989;SDS011;14537;47.788;11.858;2023-03-07T13:19:54;21.20;;;7.82;;
26989;SDS011;14537;47.788;11.858;2023-03-07T13:27:44;19.20;;;7.13;;
26989;SDS011;14537;47.788;11.858;2023-03-07T13:41:08;22.67;;;6.93;;
26989;SDS011;14537;47.788;11.858;2023-03-07T13:49:02;22.10;;;7.80;;
26989;SDS011;14537;47.788;11.858;2023-03-07T13:51:28;20.27;;;6.82;;
26989;SDS011;14537;47.788;11.858;2023-03-07T13:53:55;15.20;;;6.25;;
26989;SDS011;14537;47.788;11.858;2023-03-07T13:56:26;18.60;;;7.80;;
26989;SDS011;14537;47.788;11.858;2023-03-07T13:58:58;18.42;;;7.13;;
26989;SDS011;14537;47.788;11.858;2023-03-07T14:06:39;15.27;;;6.15;;
26989;SDS011;14537;47.788;11.858;2023-03-07T14:09:14;18.95;;;6.70;;
26989;SDS011;14537;47.788;11.858;2023-03-07T14:14:51;15.57;;;6.50;;
26989;SDS011;14537;47.788;11.858;2023-03-07T14:20:00;20.23;;;7.53;;
26989;SDS011;14537;47.788;11.858;2023-03-07T14:25:30;15.73;;;6.53;;
26989;SDS011;14537;47.788;11.858;2023-03-07T14:28:02;17.17;;;6.80;;
26989;SDS011;14537;47.788;11.858;2023-03-07T14:30:51;22.38;;;7.18;;
26989;SDS011;14537;47.788;11.858;2023-03-07T14:33:28;20.48;;;7.00;;
26989;SDS011;14537;47.788;11.858;2023-03-07T14:35:55;20.75;;;6.93;;
26989;SDS011;14537;47.788;11.858;2023-03-07T14:38:21;22.90;;;7.45;;
26989;SDS011;14537;47.788;11.858;2023-03-07T14:52:02;19.48;;;7.32;;
26989;SDS011;14537;47.788;11.858;2023-03-07T14:54:31;18.88;;;7.10;;
26989;SDS011;14537;47.788;11.858;2023-03-07T14:56:57;16.50;;;6.57;;
26989;SDS011;14537;47.788;11.858;2023-03-07T14:59:25;17.70;;;7.03;;
26989;SDS011;14537;47.788;11.858;2023-03-07T15:01:50;20.55;;;7.40;;
26989;SDS011;14537;47.788;11.858;2023-03-07T15:04:20;22.85;;;7.82;;
26989;SDS011;14537;47.788;11.858;2023-03-07T15:06:45;22.30;;;7.95;;
26989;SDS011;14537;47.788;11.858;2023-03-07T15:09:11;19.10;;;6.97;;
26989;SDS011;14537;47.788;11.858;2023-03-07T15:11:38;18.70;;;7.13;;
26989;SDS011;14537;47.788;11.858;2023-03-07T15:14:14;17.38;;;7.07;;
26989;SDS011;14537;47.788;11.858;2023-03-07T15:16:50;18.07;;;7.47;;
26989;SDS011;14537;47.788;11.858;2023-03-07T15:19:37;20.75;;;7.40;;
26989;SDS011;14537;47.788;11.858;2023-03-07T15:22:16;16.23;;;7.32;;
26989;SDS011;14537;47.788;11.858;2023-03-07T15:24:47;23.15;;;7.80;;
26989;SDS011;14537;47.788;11.858;2023-03-07T15:27:17;18.73;;;7.63;;
26989;SDS011;14537;47.788;11.858;2023-03-07T15:29:54;18.02;;;7.85;;
26989;SDS011;14537;47.788;11.858;2023-03-07T15:32:28;21.55;;;7.35;;
26989;SDS011;14537;47.788;11.858;2023-03-07T15:35:00;17.65;;;7.32;;
26989;SDS011;14537;47.788;11.858;2023-03-07T15:37:27;21.63;;;7.00;;
26989;SDS011;14537;47.788;11.858;2023-03-07T15:39:57;17.20;;;7.30;;
26989;SDS011;14537;47.788;11.858;2023-03-07T15:42:24;20.15;;;7.72;;
26989;SDS011;14537;47.788;11.858;2023-03-07T15:44:54;34.03;;;9.98;;
26989;SDS011;14537;47.788;11.858;2023-03-07T15:47:21;30.52;;;9.13;;
26989;SDS011;14537;47.788;11.858;2023-03-07T15:49:49;28.55;;;9.90;;
26989;SDS011;14537;47.788;11.858;2023-03-07T15:54:48;30.02;;;9.93;;
26989;SDS011;14537;47.788;11.858;2023-03-07T15:57:16;21.02;;;8.27;;
26989;SDS011;14537;47.788;11.858;2023-03-07T15:59:56;20.52;;;7.40;;
26989;SDS011;14537;47.788;11.858;2023-03-07T16:04:55;32.53;;;9.93;;
26989;SDS011;14537;47.788;11.858;2023-03-07T16:07:28;24.25;;;7.82;;
26989;SDS011;14537;47.788;11.858;2023-03-07T16:09:54;21.95;;;7.18;;
26989;SDS011;14537;47.788;11.858;2023-03-07T16:12:20;20.55;;;8.00;;
26989;SDS011;14537;47.788;11.858;2023-03-07T16:14:48;16.67;;;7.00;;
26989;SDS011;14537;47.788;11.858;2023-03-07T16:17:20;18.08;;;7.65;;
26989;SDS011;14537;47.788;11.858;2023-03-07T16:19:51;22.92;;;7.93;;
26989;SDS011;14537;47.788;11.858;2023-03-07T16:22:17;25.00;;;7.47;;
26989;SDS011;14537;47.788;11.858;2023-03-07T16:24:43;18.85;;;6.82;;
26989;SDS011;14537;47.788;11.858;2023-03-07T16:27:14;17.77;;;6.80;;
26989;SDS011;14537;47.788;11.858;2023-03-07T16:29:41;14.75;;;6.55;;
26989;SDS011;14537;47.788;11.858;2023-03-07T16:32:17;20.13;;;8.15;;
26989;SDS011;14537;47.788;11.858;2023-03-07T16:34:45;21.83;;;7.65;;
26989;SDS011;14537;47.788;11.858;2023-03-07T16:37:12;16.13;;;6.47;;
26989;SDS011;14537;47.788;11.858;2023-03-07T16:39:38;17.15;;;6.90;;
26989;SDS011;14537;47.788;11.858;2023-03-07T16:42:04;18.98;;;6.90;;
26989;SDS011;14537;47.788;11.858;2023-03-07T16:44:31;20.00;;;7.60;;
26989;SDS011;14537;47.788;11.858;2023-03-07T16:49:45;19.83;;;7.50;;
26989;SDS011;14537;47.788;11.858;2023-03-07T16:52:11;17.45;;;7.20;;
26989;SDS011;14537;47.788;11.858;2023-03-07T16:54:38;27.65;;;8.27;;
26989;SDS011;14537;47.788;11.858;2023-03-07T16:57:04;22.23;;;7.80;;
26989;SDS011;14537;47.788;11.858;2023-03-07T16:59:35;21.88;;;7.57;;